Time;durP1;ratioP1;P1;durP2;ratioP2;P2;SDS_P1;SDS_P2;PMS_P1;PMS_P2;Temp;Humidity;BMP_temperature;BMP_pressure;BME280_temperature;BME280_humidity;BME280_pressure;Samples;Min_cycle;Max_cycle;Signal;HPM_P1;HPM_P2
2021/10/18 00:00:08;;;;;;;0.82;0.80;;;24.60;39.50;;;;;;5049572;28;20504;-47
2021/10/18 00:02:39;;;;;;;1.02;0.40;;;24.60;39.50;;;;;;5048092;28;20068;-46
2021/10/18 00:05:07;;;;;;;3.40;0.65;;;24.60;39.50;;;;;;5042072;28;20055;-49
2021/10/18 00:07:34;;;;;;;1.63;0.68;;;24.60;39.50;;;;;;5041280;28;20045;-47
2021/10/18 00:10:01;;;;;;;0.88;0.88;;;24.60;39.70;;;;;;5045241;28;20060;-47
2021/10/18 00:12:29;;;;;;;3.88;1.38;;;24.60;39.70;;;;;;5048773;28;20047;-47
2021/10/18 00:14:56;;;;;;;0.30;0.30;;;24.60;39.70;;;;;;5049522;28;20047;-46
2021/10/18 00:17:23;;;;;;;1.27;1.02;;;24.60;39.70;;;;;;5047894;28;20394;-49
2021/10/18 00:19:51;;;;;;;2.42;0.60;;;24.60;39.70;;;;;;5047815;28;20535;-46
2021/10/18 00:22:20;;;;;;;1.63;0.75;;;24.60;39.70;;;;;;5030169;28;20132;-46
2021/10/18 00:24:47;;;;;;;0.60;0.45;;;24.50;39.60;;;;;;5036098;28;20373;-46
2021/10/18 00:27:14;;;;;;;0.77;0.68;;;24.50;39.70;;;;;;5049345;28;20068;-46
2021/10/18 00:29:42;;;;;;;1.23;1.05;;;24.50;39.70;;;;;;5047100;28;20045;-50
2021/10/18 00:32:09;;;;;;;1.75;0.80;;;24.50;39.70;;;;;;5047826;28;20044;-51
2021/10/18 00:34:36;;;;;;;0.52;0.50;;;24.50;39.70;;;;;;5047488;28;20128;-47
2021/10/18 00:37:03;;;;;;;2.28;1.23;;;24.50;39.70;;;;;;5047539;28;20037;-50
2021/10/18 00:39:30;;;;;;;2.20;0.82;;;24.50;39.70;;;;;;5048314;28;20044;-46
2021/10/18 00:41:57;;;;;;;2.50;1.23;;;24.50;39.80;;;;;;5047903;28;20040;-46
2021/10/18 00:44:25;;;;;;;0.50;0.50;;;24.50;39.80;;;;;;5047444;28;20043;-48
2021/10/18 00:46:53;;;;;;;4.47;0.98;;;24.40;39.70;;;;;;5047917;28;20081;-47
2021/10/18 00:49:20;;;;;;;1.25;0.82;;;24.50;39.80;;;;;;5047537;28;20124;-47
2021/10/18 00:51:48;;;;;;;1.45;0.98;;;24.40;39.70;;;;;;5047148;28;20033;-45
2021/10/18 00:54:16;;;;;;;0.52;0.47;;;24.40;39.70;;;;;;5048746;28;20119;-47
2021/10/18 00:56:44;;;;;;;1.20;0.77;;;24.40;39.70;;;;;;5046501;28;20456;-47
2021/10/18 00:59:12;;;;;;;1.30;1.20;;;24.40;39.70;;;;;;5033535;28;20067;-49
2021/10/18 01:01:39;;;;;;;1.25;1.25;;;24.40;39.70;;;;;;5047023;28;20454;-46
2021/10/18 01:04:07;;;;;;;0.80;0.80;;;24.40;39.70;;;;;;5046778;28;20037;-48
2021/10/18 01:06:35;;;;;;;1.00;0.40;;;24.40;39.70;;;;;;5047486;28;20128;-47
2021/10/18 01:09:02;;;;;;;1.05;0.80;;;24.40;39.70;;;;;;5047962;28;20078;-46
2021/10/18 01:11:29;;;;;;;0.80;0.70;;;24.40;39.70;;;;;;5046900;28;20049;-47
2021/10/18 01:13:55;;;;;;;0.77;0.77;;;24.40;39.70;;;;;;5046420;28;20041;-47
2021/10/18 01:16:22;;;;;;;0.63;0.63;;;24.40;39.70;;;;;;5047320;28;20140;-48
2021/10/18 01:18:50;;;;;;;0.60;0.52;;;24.40;39.80;;;;;;5046499;28;20513;-47
2021/10/18 01:21:18;;;;;;;0.88;0.70;;;24.40;39.80;;;;;;5048424;28;20416;-48
2021/10/18 01:23:45;;;;;;;0.65;0.50;;;24.40;39.80;;;;;;5046000;28;20041;-49
2021/10/18 01:26:12;;;;;;;1.25;0.50;;;24.30;39.70;;;;;;5045770;28;20069;-48
2021/10/18 01:28:40;;;;;;;1.20;0.85;;;24.30;39.70;;;;;;5046442;28;20056;-48
2021/10/18 01:31:06;;;;;;;0.80;0.80;;;24.30;39.70;;;;;;5046702;28;20040;-46
2021/10/18 01:33:33;;;;;;;1.83;1.20;;;24.30;39.70;;;;;;5046886;28;20281;-48
2021/10/18 01:36:01;;;;;;;0.38;0.38;;;24.30;39.70;;;;;;5047931;28;20051;-46
2021/10/18 01:38:29;;;;;;;0.57;0.40;;;24.30;39.70;;;;;;5046050;28;20045;-47
2021/10/18 01:40:56;;;;;;;0.65;0.65;;;24.30;39.70;;;;;;5046319;28;20123;-49
2021/10/18 01:43:23;;;;;;;1.40;1.30;;;24.30;39.70;;;;;;5046586;28;20124;-48
2021/10/18 01:45:50;;;;;;;1.02;0.90;;;24.30;39.70;;;;;;5046722;28;20037;-47
2021/10/18 01:48:17;;;;;;;1.23;1.13;;;24.30;39.80;;;;;;5047502;28;20048;-46
2021/10/18 01:50:44;;;;;;;0.98;0.70;;;24.30;39.80;;;;;;5046540;28;20045;-48
2021/10/18 01:53:11;;;;;;;1.73;0.80;;;24.30;39.80;;;;;;5046059;28;20052;-48
2021/10/18 01:55:40;;;;;;;0.63;0.60;;;24.30;39.90;;;;;;5045970;28;20033;-46
2021/10/18 01:58:07;;;;;;;0.77;0.77;;;24.30;39.80;;;;;;5045266;28;20071;-47
2021/10/18 02:00:34;;;;;;;0.65;0.55;;;24.20;39.80;;;;;;5030837;28;20410;-47
2021/10/18 02:03:01;;;;;;;0.70;0.70;;;24.20;39.80;;;;;;5047267;28;20044;-48
2021/10/18 02:05:28;;;;;;;7.05;0.70;;;24.20;39.80;;;;;;5043776;28;20397;-47
2021/10/18 02:07:55;;;;;;;1.30;0.60;;;24.20;39.80;;;;;;5044933;28;20076;-51
2021/10/18 02:10:22;;;;;;;4.25;0.98;;;24.20;39.80;;;;;;5043547;28;20535;-50
2021/10/18 02:12:51;;;;;;;0.50;0.32;;;24.20;39.80;;;;;;5045948;28;20045;-50
2021/10/18 02:15:19;;;;;;;0.93;0.93;;;24.20;39.80;;;;;;5047341;28;20409;-47
2021/10/18 02:17:46;;;;;;;0.43;0.43;;;24.20;39.80;;;;;;5045342;28;20045;-46
2021/10/18 02:20:14;;;;;;;2.40;0.50;;;24.20;39.80;;;;;;5045426;28;20082;-48
2021/10/18 02:22:43;;;;;;;1.48;0.55;;;24.20;39.80;;;;;;5045543;28;20041;-50
2021/10/18 02:25:11;;;;;;;1.05;0.50;;;24.20;39.80;;;;;;5045500;28;20033;-50
2021/10/18 02:27:39;;;;;;;1.15;1.15;;;24.20;39.80;;;;;;5044989;28;20047;-47
2021/10/18 02:30:10;;;;;;;0.77;0.77;;;24.10;39.80;;;;;;5045035;28;20041;-47
2021/10/18 02:32:37;;;;;;;1.60;0.85;;;24.20;39.80;;;;;;5045492;28;20413;-48
2021/10/18 02:35:05;;;;;;;0.60;0.55;;;24.20;39.80;;;;;;5045746;28;20498;-46
2021/10/18 02:37:32;;;;;;;1.15;0.85;;;24.10;39.80;;;;;;5045332;28;20119;-46
2021/10/18 02:39:59;;;;;;;0.80;0.63;;;24.10;39.80;;;;;;5045245;28;20415;-46
2021/10/18 02:42:26;;;;;;;1.40;0.68;;;24.10;39.80;;;;;;5046617;28;20049;-47
2021/10/18 02:44:54;;;;;;;0.80;0.80;;;24.10;39.70;;;;;;5046390;28;20041;-48
2021/10/18 02:47:22;;;;;;;1.08;0.95;;;24.10;39.70;;;;;;5045115;28;20045;-47
2021/10/18 02:49:49;;;;;;;1.48;0.30;;;24.10;39.70;;;;;;5045751;28;20057;-50
2021/10/18 02:52:16;;;;;;;0.70;0.57;;;24.10;39.80;;;;;;5045448;28;21063;-48
2021/10/18 02:54:43;;;;;;;0.45;0.40;;;24.10;39.70;;;;;;5045374;28;20115;-48
2021/10/18 02:57:10;;;;;;;0.77;0.77;;;24.10;39.70;;;;;;5047200;28;20033;-47
2021/10/18 02:59:37;;;;;;;0.82;0.70;;;24.10;39.80;;;;;;5045138;28;20041;-47
2021/10/18 03:02:04;;;;;;;0.88;0.63;;;24.00;39.70;;;;;;5035942;28;20049;-50
2021/10/18 03:04:33;;;;;;;0.88;0.75;;;24.00;39.70;;;;;;5038880;28;20182;-50
2021/10/18 03:07:00;;;;;;;1.38;0.70;;;24.00;39.80;;;;;;5039036;28;20437;-47
2021/10/18 03:09:27;;;;;;;0.60;0.52;;;24.00;39.70;;;;;;5046329;28;20413;-48
2021/10/18 03:11:54;;;;;;;0.60;0.60;;;24.00;39.70;;;;;;5046386;28;20512;-47
2021/10/18 03:14:21;;;;;;;0.82;0.52;;;24.00;39.70;;;;;;5045240;28;20041;-46
2021/10/18 03:16:48;;;;;;;0.90;0.70;;;24.00;39.80;;;;;;5044985;28;23264;-46
2021/10/18 03:19:15;;;;;;;1.23;0.90;;;24.00;39.80;;;;;;5047735;28;20522;-46
2021/10/18 03:21:43;;;;;;;1.38;0.40;;;24.00;39.70;;;;;;5049479;28;20505;-46
2021/10/18 03:24:10;;;;;;;3.30;1.25;;;24.00;39.70;;;;;;5050687;28;20354;-48
2021/10/18 03:26:38;;;;;;;1.60;0.55;;;24.00;39.70;;;;;;5048980;28;20047;-47
2021/10/18 03:29:05;;;;;;;1.42;0.55;;;23.90;40.10;;;;;;5046648;28;20045;-46
2021/10/18 03:31:32;;;;;;;0.55;0.55;;;24.00;39.80;;;;;;5048677;28;20041;-46
2021/10/18 03:33:59;;;;;;;0.50;0.50;;;23.90;39.70;;;;;;5048660;28;20041;-46
2021/10/18 03:36:26;;;;;;;0.73;0.73;;;24.00;39.80;;;;;;5049940;28;20057;-46
2021/10/18 03:38:54;;;;;;;2.92;0.90;;;23.90;39.80;;;;;;5049306;28;20493;-49
2021/10/18 03:41:21;;;;;;;2.83;0.65;;;24.00;39.80;;;;;;5048785;28;20041;-48
2021/10/18 03:43:48;;;;;;;0.63;0.63;;;24.00;39.80;;;;;;5048057;28;20041;-47
2021/10/18 03:46:15;;;;;;;0.85;0.68;;;23.90;39.80;;;;;;5048565;28;20052;-47
2021/10/18 03:48:42;;;;;;;1.58;0.70;;;23.90;39.80;;;;;;5048261;28;20525;-47
2021/10/18 03:51:09;;;;;;;0.95;0.95;;;23.90;39.80;;;;;;5050224;28;20512;-45
2021/10/18 03:53:36;;;;;;;1.20;0.45;;;23.90;39.80;;;;;;5048180;28;20536;-47
2021/10/18 03:56:04;;;;;;;2.15;0.70;;;23.90;39.80;;;;;;5048042;28;20433;-45
2021/10/18 03:58:32;;;;;;;0.98;0.98;;;23.90;39.80;;;;;;5047622;28;20064;-47
2021/10/18 04:00:59;;;;;;;0.68;0.55;;;23.90;39.80;;;;;;5048294;28;20620;-45
2021/10/18 04:03:26;;;;;;;0.60;0.52;;;23.90;39.80;;;;;;5049481;28;20687;-45
2021/10/18 04:05:53;;;;;;;0.82;0.82;;;23.90;39.80;;;;;;5049225;28;20052;-47
2021/10/18 04:08:23;;;;;;;1.58;0.80;;;23.80;39.80;;;;;;5047805;28;20044;-48
2021/10/18 04:10:50;;;;;;;0.88;0.65;;;23.90;39.90;;;;;;5047395;28;20501;-48
2021/10/18 04:13:18;;;;;;;2.50;0.70;;;23.90;39.90;;;;;;5047556;28;20075;-48
2021/10/18 04:15:45;;;;;;;1.38;0.82;;;23.80;39.80;;;;;;5047831;28;20159;-46
2021/10/18 04:18:12;;;;;;;1.75;1.23;;;23.80;39.80;;;;;;5049412;28;20493;-46
2021/10/18 04:20:39;;;;;;;1.80;0.93;;;23.80;39.80;;;;;;5047670;28;20041;-47
2021/10/18 04:23:06;;;;;;;2.13;0.60;;;23.80;39.80;;;;;;5047513;28;20056;-46
2021/10/18 04:25:33;;;;;;;1.10;0.70;;;23.80;39.80;;;;;;5047729;28;20140;-47
2021/10/18 04:28:00;;;;;;;0.70;0.60;;;23.80;39.80;;;;;;5033248;28;20042;-47
2021/10/18 04:30:29;;;;;;;0.73;0.70;;;23.80;39.90;;;;;;5047476;28;20041;-46
2021/10/18 04:32:56;;;;;;;1.40;0.70;;;23.80;39.90;;;;;;5047719;28;20048;-47
2021/10/18 04:35:23;;;;;;;1.33;1.23;;;23.80;39.90;;;;;;5046129;28;20051;-46
2021/10/18 04:37:52;;;;;;;1.02;0.52;;;23.80;39.90;;;;;;5047399;28;20094;-52
2021/10/18 04:40:19;;;;;;;0.80;0.80;;;23.80;39.90;;;;;;5046059;28;20041;-47
2021/10/18 04:42:46;;;;;;;4.22;0.52;;;23.70;39.90;;;;;;5046966;28;20053;-46
2021/10/18 04:45:13;;;;;;;0.52;0.50;;;23.80;39.90;;;;;;5048987;28;20088;-48
2021/10/18 04:47:47;;;;;;;0.73;0.73;;;23.70;39.90;;;;;;5047124;28;20420;-48
2021/10/18 04:50:15;;;;;;;0.43;0.40;;;23.80;40.00;;;;;;5047225;28;20056;-47
2021/10/18 04:52:42;;;;;;;1.48;0.95;;;23.80;40.10;;;;;;5047075;28;20497;-46
2021/10/18 04:55:09;;;;;;;0.65;0.60;;;23.70;40.10;;;;;;5047068;28;20085;-46
2021/10/18 04:57:49;;;;;;;0.40;0.40;;;23.70;40.10;;;;;;5031393;28;20065;-46
2021/10/18 05:00:16;;;;;;;0.70;0.57;;;23.80;40.10;;;;;;5047697;28;20100;-45
2021/10/18 05:02:44;;;;;;;1.52;0.73;;;23.80;40.10;;;;;;5046606;28;20073;-48
2021/10/18 05:05:11;;;;;;;3.05;1.00;;;23.70;40.10;;;;;;5046708;28;20051;-48
2021/10/18 05:07:38;;;;;;;0.50;0.50;;;23.70;40.10;;;;;;5046625;28;20454;-49
2021/10/18 05:10:09;;;;;;;1.25;1.15;;;23.70;40.10;;;;;;5046445;28;20045;-47
2021/10/18 05:12:37;;;;;;;1.23;0.40;;;23.80;40.10;;;;;;5046496;28;20052;-45
2021/10/18 05:15:06;;;;;;;0.50;0.20;;;23.70;40.10;;;;;;5047964;28;20716;-45
2021/10/18 05:17:36;;;;;;;1.65;0.50;;;23.70;40.10;;;;;;5050123;28;20591;-45
2021/10/18 05:20:05;;;;;;;2.00;0.60;;;23.70;40.10;;;;;;5046563;28;20048;-46
2021/10/18 05:22:32;;;;;;;2.30;0.85;;;23.70;40.00;;;;;;5046685;28;20032;-48
2021/10/18 05:24:59;;;;;;;0.80;0.70;;;23.70;40.10;;;;;;5046149;28;20045;-45
2021/10/18 05:27:26;;;;;;;1.48;1.38;;;23.70;40.10;;;;;;5047474;28;20048;-47
2021/10/18 05:29:53;;;;;;;0.70;0.50;;;23.70;40.10;;;;;;5046011;28;20079;-46
2021/10/18 05:32:20;;;;;;;0.52;0.52;;;23.70;40.10;;;;;;5046247;28;20041;-47
2021/10/18 05:34:47;;;;;;;1.67;1.10;;;23.70;40.10;;;;;;5046243;28;20048;-45
2021/10/18 05:37:15;;;;;;;1.00;0.80;;;23.70;40.70;;;;;;5046239;28;20043;-45
2021/10/18 05:39:43;;;;;;;0.75;0.70;;;23.70;40.10;;;;;;5045809;28;20037;-49
2021/10/18 05:42:10;;;;;;;1.10;0.60;;;23.70;40.10;;;;;;5047729;28;20072;-49
2021/10/18 05:44:37;;;;;;;1.23;0.50;;;23.70;40.10;;;;;;5046128;28;20047;-49
2021/10/18 05:47:04;;;;;;;1.80;0.80;;;23.70;40.10;;;;;;5045592;28;20059;-50
2021/10/18 05:49:31;;;;;;;1.92;0.55;;;23.70;40.10;;;;;;5044749;28;20041;-49
2021/10/18 05:52:00;;;;;;;0.60;0.30;;;23.70;40.10;;;;;;5049821;28;20745;-47
2021/10/18 05:54:28;;;;;;;0.70;0.70;;;23.70;40.10;;;;;;5047054;28;20045;-48
2021/10/18 05:56:55;;;;;;;1.88;0.50;;;23.70;40.10;;;;;;5045540;28;20124;-48
2021/10/18 05:59:22;;;;;;;2.05;0.90;;;23.70;40.10;;;;;;5043333;28;20414;-46
2021/10/18 06:01:50;;;;;;;1.00;0.80;;;23.70;40.10;;;;;;5043195;28;20068;-48
2021/10/18 06:04:17;;;;;;;1.75;0.47;;;23.60;40.20;;;;;;5045539;28;20047;-49
2021/10/18 06:06:44;;;;;;;1.65;0.88;;;23.60;40.20;;;;;;5045934;28;20099;-47
2021/10/18 06:09:13;;;;;;;0.40;0.40;;;23.60;40.20;;;;;;5047053;28;20044;-47
2021/10/18 06:11:42;;;;;;;1.20;0.75;;;23.60;40.20;;;;;;5043542;28;20064;-47
2021/10/18 06:14:09;;;;;;;0.80;0.80;;;23.60;40.30;;;;;;5045372;28;20045;-47
2021/10/18 06:16:36;;;;;;;4.10;0.60;;;23.60;40.30;;;;;;5045493;28;20037;-48
2021/10/18 06:19:04;;;;;;;2.03;0.98;;;23.60;40.30;;;;;;5045539;28;20822;-50
2021/10/18 06:21:31;;;;;;;1.17;1.08;;;23.60;40.30;;;;;;5046348;28;20102;-48
2021/10/18 06:23:58;;;;;;;1.00;0.88;;;23.60;40.30;;;;;;5044533;28;20088;-47
2021/10/18 06:26:25;;;;;;;0.65;0.57;;;23.60;40.30;;;;;;5045050;28;20481;-48
2021/10/18 06:28:54;;;;;;;0.50;0.50;;;23.60;40.30;;;;;;5043906;28;20044;-46
2021/10/18 06:31:21;;;;;;;0.50;0.50;;;23.60;40.40;;;;;;5027879;28;20115;-47
2021/10/18 06:33:48;;;;;;;0.50;0.50;;;23.60;40.40;;;;;;5044918;28;20128;-48
2021/10/18 06:36:15;;;;;;;0.57;0.50;;;23.60;40.40;;;;;;5046939;28;20052;-46
2021/10/18 06:38:42;;;;;;;2.63;0.80;;;23.60;40.40;;;;;;5045087;28;20044;-50
2021/10/18 06:41:09;;;;;;;1.15;0.50;;;23.60;40.40;;;;;;5045177;28;20041;-47
2021/10/18 06:43:36;;;;;;;0.77;0.77;;;23.50;40.30;;;;;;5044788;28;20057;-49
2021/10/18 06:46:05;;;;;;;2.25;0.93;;;23.60;40.30;;;;;;5045645;28;20375;-47
2021/10/18 06:48:35;;;;;;;1.48;0.52;;;23.50;40.30;;;;;;5045592;28;20057;-49
2021/10/18 06:51:03;;;;;;;1.00;0.93;;;23.50;40.30;;;;;;5046623;28;20086;-47
2021/10/18 06:53:33;;;;;;;1.30;1.10;;;23.60;40.40;;;;;;5046155;28;20040;-50
2021/10/18 06:56:03;;;;;;;0.50;0.50;;;23.60;40.40;;;;;;5032729;28;20190;-49
2021/10/18 06:58:30;;;;;;;1.25;0.63;;;23.60;40.40;;;;;;5048499;28;20041;-49
2021/10/18 07:00:57;;;;;;;0.90;0.85;;;23.60;40.40;;;;;;5046249;28;20488;-47
2021/10/18 07:03:26;;;;;;;1.65;0.65;;;23.60;40.30;;;;;;5050124;28;20421;-48
2021/10/18 07:05:53;;;;;;;0.50;0.38;;;23.60;40.30;;;;;;5049649;28;20051;-47
2021/10/18 07:08:20;;;;;;;2.70;0.90;;;23.60;40.30;;;;;;5047865;28;20148;-47
2021/10/18 07:10:47;;;;;;;1.38;0.90;;;23.70;40.40;;;;;;5047477;28;20033;-48
2021/10/18 07:13:14;;;;;;;1.58;0.40;;;23.70;40.30;;;;;;5030987;28;20059;-47
2021/10/18 07:15:42;;;;;;;0.65;0.60;;;23.60;40.90;;;;;;5047337;28;20039;-49
2021/10/18 07:18:09;;;;;;;5.40;1.55;;;23.70;40.40;;;;;;5049701;28;20144;-48
2021/10/18 07:20:38;;;;;;;1.48;0.93;;;23.70;40.40;;;;;;5051506;28;20555;-49
2021/10/18 07:23:09;;;;;;;0.95;0.88;;;23.70;40.40;;;;;;5050771;28;20041;-48
2021/10/18 07:25:40;;;;;;;7.30;1.02;;;23.70;40.40;;;;;;5048127;28;20040;-46
2021/10/18 07:28:08;;;;;;;0.93;0.93;;;23.70;40.50;;;;;;5048684;28;20488;-49
2021/10/18 07:30:37;;;;;;;2.80;0.95;;;23.70;40.60;;;;;;5051696;28;20044;-55
2021/10/18 07:33:04;;;;;;;2.03;0.95;;;23.70;40.70;;;;;;5056069;28;20086;-55
2021/10/18 07:35:33;;;;;;;1.83;0.93;;;23.70;41.00;;;;;;5047812;28;20501;-52
2021/10/18 07:38:03;;;;;;;2.78;1.10;;;23.70;41.00;;;;;;5046828;28;20037;-52
2021/10/18 07:40:30;;;;;;;1.42;0.90;;;23.70;41.00;;;;;;5054487;28;20055;-54
2021/10/18 07:43:00;;;;;;;2.28;1.60;;;23.70;41.10;;;;;;5051588;28;20412;-52
2021/10/18 07:45:28;;;;;;;1.15;0.77;;;23.70;41.10;;;;;;5054331;28;20052;-56
2021/10/18 07:47:56;;;;;;;0.65;0.45;;;23.70;41.20;;;;;;5051834;28;20044;-49
2021/10/18 07:50:23;;;;;;;0.82;0.82;;;23.70;41.40;;;;;;5047665;28;20155;-54
2021/10/18 07:52:50;;;;;;;1.85;0.60;;;23.70;41.60;;;;;;5047562;28;20072;-53
2021/10/18 07:55:20;;;;;;;2.08;0.63;;;23.70;41.80;;;;;;5050774;28;20087;-53
2021/10/18 07:57:49;;;;;;;0.35;0.30;;;23.60;42.00;;;;;;5046096;28;20048;-51
2021/10/18 08:00:17;;;;;;;1.25;0.60;;;23.50;42.20;;;;;;5050161;28;20140;-48
2021/10/18 08:02:45;;;;;;;0.40;0.30;;;23.50;42.40;;;;;;5049661;28;20461;-48
2021/10/18 08:05:16;;;;;;;1.55;0.70;;;23.40;42.60;;;;;;5045908;28;20053;-47
2021/10/18 08:07:45;;;;;;;1.05;0.30;;;23.30;42.70;;;;;;5048430;28;20037;-45
2021/10/18 08:10:14;;;;;;;0.55;0.55;;;23.30;42.80;;;;;;5050991;28;20142;-50
2021/10/18 08:12:42;;;;;;;2.10;0.80;;;23.30;42.90;;;;;;5050516;28;20051;-51
2021/10/18 08:15:10;;;;;;;1.05;0.70;;;23.20;43.00;;;;;;5048167;28;20413;-53
2021/10/18 08:17:37;;;;;;;1.65;0.45;;;23.20;43.10;;;;;;5048371;28;20060;-48
2021/10/18 08:20:06;;;;;;;1.38;1.00;;;23.20;43.20;;;;;;5049637;28;20072;-49
2021/10/18 08:22:33;;;;;;;0.77;0.77;;;23.20;43.30;;;;;;5047404;28;20091;-48
2021/10/18 08:25:00;;;;;;;1.17;0.95;;;23.10;43.40;;;;;;5050718;28;20053;-51
2021/10/18 08:27:27;;;;;;;1.50;0.63;;;23.10;43.50;;;;;;5048301;28;20041;-47
2021/10/18 08:29:56;;;;;;;1.10;1.10;;;23.10;43.60;;;;;;5049254;28;20103;-48
2021/10/18 08:32:23;;;;;;;1.02;0.93;;;23.00;43.60;;;;;;5034616;28;20505;-52
2021/10/18 08:34:50;;;;;;;2.05;0.90;;;23.00;43.70;;;;;;5046647;28;20033;-50
2021/10/18 08:37:17;;;;;;;2.17;1.50;;;23.00;43.90;;;;;;5053709;28;20580;-45
2021/10/18 08:42:28;;;;;;;2.78;0.80;;;23.00;43.90;;;;;;5037160;28;20094;-45
2021/10/18 08:44:57;;;;;;;3.55;0.68;;;23.00;44.00;;;;;;5047474;28;20033;-45
2021/10/18 08:47:26;;;;;;;4.72;1.20;;;22.90;43.80;;;;;;5046117;28;20071;-46
2021/10/18 08:49:54;;;;;;;2.33;0.98;;;22.90;43.80;;;;;;5046750;28;20044;-48
2021/10/18 08:52:21;;;;;;;2.60;0.90;;;22.90;43.70;;;;;;5047205;28;20045;-45
2021/10/18 08:54:49;;;;;;;6.43;0.88;;;22.90;43.70;;;;;;5048128;28;20056;-46
2021/10/18 08:57:16;;;;;;;4.30;1.55;;;22.90;43.60;;;;;;5056914;28;20047;-49
2021/10/18 08:59:44;;;;;;;4.07;1.10;;;22.80;43.70;;;;;;5043575;28;20049;-49
2021/10/18 09:02:12;;;;;;;3.72;1.58;;;22.80;43.90;;;;;;5046832;28;20429;-49
2021/10/18 09:04:40;;;;;;;3.60;0.80;;;22.80;44.00;;;;;;5046117;28;20049;-49
2021/10/18 09:07:16;;;;;;;3.08;0.60;;;22.80;44.10;;;;;;5043850;28;20509;-49
2021/10/18 09:09:48;;;;;;;2.17;0.88;;;22.80;44.20;;;;;;5045840;28;20823;-53
2021/10/18 09:12:25;;;;;;;3.45;1.05;;;22.80;44.30;;;;;;5053896;28;20053;-53
2021/10/18 09:14:52;;;;;;;2.10;0.88;;;22.80;44.40;;;;;;5050445;28;20040;-49
2021/10/18 09:17:33;;;;;;;1.58;0.73;;;22.80;44.50;;;;;;5044201;28;20041;-50
2021/10/18 09:20:22;;;;;;;2.47;1.48;;;22.90;44.50;;;;;;5041878;28;20532;-51
2021/10/18 09:22:49;;;;;;;1.42;1.10;;;22.80;44.60;;;;;;5043691;28;20049;-47
2021/10/18 09:25:32;;;;;;;1.75;1.65;;;22.80;44.80;;;;;;5044876;28;20045;-49
2021/10/18 09:28:08;;;;;;;2.40;0.90;;;22.80;44.70;;;;;;5046291;28;20125;-49
2021/10/18 09:30:36;;;;;;;2.55;0.65;;;22.80;44.80;;;;;;5048787;28;20520;-52
2021/10/18 09:33:13;;;;;;;10.82;1.25;;;22.80;44.80;;;;;;5049202;28;20032;-53
2021/10/18 09:35:41;;;;;;;1.33;1.20;;;22.80;44.90;;;;;;5045956;28;20127;-57
2021/10/18 09:38:10;;;;;;;3.30;1.67;;;22.80;45.00;;;;;;5046181;28;20202;-56
2021/10/18 09:40:40;;;;;;;6.03;2.70;;;22.80;45.10;;;;;;5044143;28;20095;-50
2021/10/18 09:43:13;;;;;;;3.72;1.05;;;22.80;45.10;;;;;;5047030;28;20138;-51
2021/10/18 09:45:56;;;;;;;5.28;1.65;;;22.80;45.10;;;;;;5046546;28;20048;-49
2021/10/18 10:53:27;;;;;;;2.03;1.30;;;25.10;41.30;;;;;;5044514;28;20544;-45
2021/10/18 10:55:55;;;;;;;1.92;0.70;;;25.10;41.10;;;;;;5044813;28;20650;-48
2021/10/18 10:58:48;;;;;;;2.53;1.02;;;25.30;41.20;;;;;;5045687;28;20043;-48
2021/10/18 11:01:45;;;;;;;2.42;1.45;;;25.40;41.10;;;;;;5041663;28;20048;-50
2021/10/18 11:04:55;;;;;;;4.22;1.17;;;25.40;41.40;;;;;;5039101;28;20051;-47
2021/10/18 11:07:53;;;;;;;1.35;1.25;;;25.50;42.10;;;;;;5042025;28;20033;-48
2021/10/18 11:10:25;;;;;;;1.38;0.98;;;25.60;42.30;;;;;;5041889;28;20076;-49
2021/10/18 11:12:53;;;;;;;3.53;1.67;;;25.60;42.50;;;;;;5048272;28;20036;-47
2021/10/18 11:15:22;;;;;;;2.38;1.30;;;25.70;42.40;;;;;;5046680;28;20037;-51
2021/10/18 11:17:51;;;;;;;0.88;0.80;;;25.70;42.30;;;;;;5045081;28;20041;-53
2021/10/18 11:20:20;;;;;;;5.57;1.33;;;25.90;42.20;;;;;;5045068;28;20037;-55
2021/10/18 11:22:49;;;;;;;3.63;0.90;;;26.00;42.10;;;;;;5046697;28;20045;-49
2021/10/18 11:25:18;;;;;;;1.40;0.70;;;26.00;42.00;;;;;;5041366;28;20041;-49
2021/10/18 11:27:55;;;;;;;1.45;1.23;;;26.10;42.20;;;;;;5045311;28;20415;-50
2021/10/18 11:30:24;;;;;;;2.38;1.27;;;26.10;41.70;;;;;;5046195;28;20119;-55
2021/10/18 11:32:57;;;;;;;2.78;0.80;;;26.20;41.60;;;;;;5045347;28;20052;-53
2021/10/18 11:35:25;;;;;;;1.52;0.68;;;26.20;41.40;;;;;;5043484;28;20132;-51
2021/10/18 11:37:56;;;;;;;2.47;1.27;;;26.30;41.40;;;;;;5044578;28;20044;-49
2021/10/18 11:40:28;;;;;;;1.25;1.05;;;26.20;41.30;;;;;;5046051;28;20087;-52
2021/10/18 11:42:58;;;;;;;1.20;0.73;;;26.20;41.30;;;;;;5046244;28;20041;-48
2021/10/18 11:45:27;;;;;;;7.10;0.73;;;26.10;41.30;;;;;;5049320;28;20052;-49
2021/10/18 11:48:05;;;;;;;1.65;1.08;;;26.00;41.30;;;;;;5049138;28;20037;-49
2021/10/18 11:50:36;;;;;;;5.72;1.17;;;25.90;41.30;;;;;;5047255;28;20540;-49
2021/10/18 11:53:10;;;;;;;4.88;1.23;;;25.80;41.40;;;;;;5047890;28;20037;-51
2021/10/18 11:55:58;;;;;;;1.10;1.10;;;25.70;41.50;;;;;;5048124;28;20104;-51
2021/10/18 11:58:28;;;;;;;2.38;0.98;;;25.60;41.60;;;;;;5031221;28;20132;-53
2021/10/18 12:01:02;;;;;;;4.28;0.80;;;25.60;41.80;;;;;;5028972;28;20051;-51
2021/10/18 12:03:31;;;;;;;6.60;1.65;;;25.50;41.80;;;;;;5028996;28;20502;-48
2021/10/18 12:05:59;;;;;;;3.03;1.08;;;25.40;41.80;;;;;;5025266;28;20038;-49
2021/10/18 12:08:28;;;;;;;6.15;0.93;;;25.40;42.10;;;;;;5027167;28;20046;-49
2021/10/18 12:10:56;;;;;;;6.30;2.15;;;25.40;42.10;;;;;;5027719;28;20553;-50
2021/10/18 12:13:27;;;;;;;4.55;1.55;;;25.30;41.90;;;;;;5028010;28;20129;-48
2021/10/18 12:16:19;;;;;;;2.72;1.23;;;25.30;42.00;;;;;;5025985;28;20111;-49
2021/10/18 12:18:48;;;;;;;1.17;1.17;;;25.30;42.10;;;;;;5043225;28;20050;-48
2021/10/18 12:21:21;;;;;;;4.38;1.13;;;25.30;42.30;;;;;;5029689;28;20406;-49
2021/10/18 12:23:51;;;;;;;1.73;1.10;;;25.30;42.30;;;;;;5028037;28;20049;-48
2021/10/18 12:26:20;;;;;;;3.03;0.95;;;25.20;42.30;;;;;;5027477;28;20052;-51
2021/10/18 12:28:52;;;;;;;3.20;1.70;;;25.20;42.40;;;;;;5028288;28;20482;-51
2021/10/18 12:31:39;;;;;;;6.40;0.90;;;25.20;42.60;;;;;;5025850;28;20048;-49
2021/10/18 12:34:14;;;;;;;6.60;1.63;;;25.20;42.60;;;;;;5028182;28;20141;-49
2021/10/18 12:36:57;;;;;;;1.27;0.75;;;25.10;42.80;;;;;;5028420;28;20041;-50
2021/10/18 12:39:45;;;;;;;4.88;1.23;;;25.10;42.80;;;;;;5028533;28;20514;-51
2021/10/18 12:42:14;;;;;;;7.25;1.10;;;25.10;42.80;;;;;;5027529;28;20414;-50
2021/10/18 12:44:42;;;;;;;0.85;0.75;;;25.00;42.90;;;;;;5027856;28;20038;-50
2021/10/18 12:47:16;;;;;;;3.40;0.73;;;25.00;43.00;;;;;;5026899;28;20057;-51
2021/10/18 12:49:51;;;;;;;3.30;0.82;;;25.00;43.00;;;;;;5025678;28;20547;-49
2021/10/18 12:52:28;;;;;;;3.17;1.08;;;24.90;43.00;;;;;;5027009;28;20406;-50
2021/10/18 12:54:55;;;;;;;2.08;1.15;;;25.00;43.20;;;;;;5025317;28;20178;-53
2021/10/18 12:57:25;;;;;;;3.95;0.60;;;24.90;43.20;;;;;;5026888;28;20041;-51
2021/10/18 13:00:09;;;;;;;1.38;1.30;;;24.90;43.30;;;;;;5039454;28;20130;-50
2021/10/18 13:02:38;;;;;;;0.95;0.88;;;24.90;43.30;;;;;;5047411;28;20040;-52
2021/10/18 13:05:11;;;;;;;5.00;0.85;;;24.90;43.50;;;;;;5047516;28;20460;-47
2021/10/18 13:07:40;;;;;;;1.77;1.38;;;24.80;43.50;;;;;;5041314;28;20139;-49
2021/10/18 13:10:09;;;;;;;3.70;1.50;;;24.80;43.50;;;;;;5046950;28;20068;-49
2021/10/18 13:12:36;;;;;;;2.83;1.15;;;24.80;43.60;;;;;;5047046;28;20053;-52
2021/10/18 13:15:04;;;;;;;2.45;1.25;;;24.70;43.60;;;;;;5048392;28;20502;-50
2021/10/18 13:17:31;;;;;;;2.28;1.33;;;24.70;43.70;;;;;;5046304;28;20597;-45
2021/10/18 13:20:00;;;;;;;2.97;1.17;;;24.70;43.70;;;;;;5046466;28;20041;-45
2021/10/18 13:22:27;;;;;;;1.63;1.27;;;24.70;43.80;;;;;;5047308;28;20072;-47
2021/10/18 13:24:54;;;;;;;1.35;0.95;;;24.70;43.90;;;;;;5023255;28;20041;-52
2021/10/18 13:27:22;;;;;;;1.08;0.98;;;24.70;44.10;;;;;;5047413;28;20048;-53
2021/10/18 13:29:49;;;;;;;2.83;1.05;;;24.70;44.20;;;;;;5047011;28;20049;-55
2021/10/18 13:32:16;;;;;;;5.40;0.63;;;24.70;44.20;;;;;;5046873;28;20527;-55
2021/10/18 13:34:44;;;;;;;1.63;0.93;;;24.80;44.40;;;;;;5040385;28;20119;-53
2021/10/18 13:37:13;;;;;;;5.10;1.95;;;24.70;44.30;;;;;;5040677;28;20505;-54
2021/10/18 13:39:41;;;;;;;3.97;1.55;;;24.80;44.40;;;;;;5046951;28;20128;-54
2021/10/18 13:42:09;;;;;;;2.28;0.93;;;24.80;44.40;;;;;;5046501;28;20425;-55
2021/10/18 13:44:38;;;;;;;2.17;0.60;;;24.80;44.40;;;;;;5044579;28;20080;-55
2021/10/18 13:47:05;;;;;;;2.33;1.25;;;24.80;44.40;;;;;;5040268;28;20469;-51
2021/10/18 13:49:32;;;;;;;2.28;0.70;;;24.80;44.50;;;;;;5046467;28;20048;-54
2021/10/18 13:51:59;;;;;;;0.90;0.90;;;24.80;44.50;;;;;;5040136;28;20124;-53
2021/10/18 13:54:28;;;;;;;2.63;0.93;;;24.80;44.50;;;;;;5043870;28;20060;-54
2021/10/18 13:56:55;;;;;;;1.23;0.65;;;24.80;44.50;;;;;;5047102;28;20074;-56
2021/10/18 13:59:22;;;;;;;1.60;1.00;;;24.70;44.50;;;;;;5042129;28;20057;-53
2021/10/18 14:01:50;;;;;;;2.63;0.93;;;24.80;44.60;;;;;;5045971;28;20135;-53
2021/10/18 14:04:18;;;;;;;2.60;0.85;;;24.80;44.60;;;;;;5045100;28;20498;-55